createdAt,value
2023-02-26T00:00:00.437Z,101866.47
2023-02-26T00:02:02.402Z,101863.81
2023-02-26T00:04:05.337Z,101883.72
2023-02-26T00:06:07.371Z,101879.38
2023-02-26T00:08:08.996Z,101882.78
2023-02-26T00:10:12.704Z,101887.97
2023-02-26T00:12:14.676Z,101892.34
2023-02-26T00:14:16.903Z,101894.88
2023-02-26T00:16:21.379Z,101902.66
2023-02-26T00:18:23.151Z,101908.69
2023-02-26T00:20:25.974Z,101903.44
2023-02-26T00:22:27.773Z,101900.00
2023-02-26T00:24:29.268Z,101918.13
2023-02-26T00:26:32.051Z,101914.63
2023-02-26T00:28:34.068Z,101911.16
2023-02-26T00:30:36.344Z,101920.66
2023-02-26T00:32:39.650Z,101916.28
2023-02-26T00:34:41.369Z,101923.25
2023-02-26T00:36:48.729Z,101930.16
2023-02-26T00:39:34.275Z,101917.13
2023-02-26T00:41:36.529Z,101915.31
2023-02-26T00:43:38.333Z,101915.25
2023-02-26T00:45:44.342Z,101929.94
2023-02-26T00:48:15.729Z,101929.88
2023-02-26T00:50:23.832Z,101933.25
2023-02-26T00:52:44.176Z,101940.13
2023-02-26T00:54:45.717Z,101940.03
2023-02-26T00:56:49.419Z,101940.97
2023-02-26T00:58:50.891Z,101940.00
2023-02-26T01:00:52.342Z,101942.59
2023-02-26T01:02:54.169Z,101936.47
2023-02-26T01:04:56.290Z,101933.88
2023-02-26T01:06:58.319Z,101945.00
2023-02-26T01:09:13.074Z,101951.03
2023-02-26T01:11:14.825Z,101948.38
2023-02-26T01:13:16.562Z,101946.56
2023-02-26T01:15:18.738Z,101959.53
2023-02-26T01:17:36.039Z,101945.69
2023-02-26T01:19:47.065Z,101961.22
2023-02-26T01:21:55.175Z,101955.16
2023-02-26T01:23:56.781Z,101957.69
2023-02-26T01:26:03.357Z,101955.94
2023-02-26T01:28:05.063Z,101963.72
2023-02-26T01:30:07.439Z,101963.72
2023-02-26T01:32:19.654Z,101962.00
2023-02-26T01:34:21.095Z,101960.19
2023-02-26T01:36:25.519Z,101961.88
2023-02-26T01:38:34.991Z,101973.13
2023-02-26T01:40:53.544Z,101973.97
2023-02-26T01:43:01.091Z,101968.72
2023-02-26T01:45:16.442Z,101972.16
2023-02-26T01:47:21.616Z,101972.16
2023-02-26T01:49:23.444Z,101975.56
2023-02-26T01:52:01.439Z,101981.56
2023-02-26T01:54:03.033Z,101981.47
2023-02-26T01:56:13.248Z,101985.75
2023-02-26T01:58:15.164Z,101990.88
2023-02-26T02:00:17.616Z,101992.59
2023-02-26T02:02:22.021Z,101995.19
2023-02-26T02:04:24.581Z,102001.25
2023-02-26T02:06:29.769Z,101999.47
2023-02-26T02:08:35.655Z,102008.13
2023-02-26T02:10:42.366Z,102014.16
2023-02-26T02:12:49.503Z,102014.09
2023-02-26T02:15:12.627Z,102015.78
2023-02-26T02:17:24.066Z,102027.00
2023-02-26T02:19:43.860Z,102027.81
2023-02-26T02:21:54.752Z,102031.28
2023-02-26T02:27:35.584Z,102039.81
2023-02-26T02:29:48.980Z,102036.34
2023-02-26T02:32:15.715Z,102044.06
2023-02-26T02:34:21.821Z,102048.38
2023-02-26T02:36:43.327Z,102038.88
2023-02-26T02:38:59.093Z,102048.31
2023-02-26T02:41:26.627Z,102052.59
2023-02-26T02:43:33.448Z,102053.50
2023-02-26T02:45:46.249Z,102056.06
2023-02-26T02:47:54.316Z,102050.00
2023-02-26T02:50:14.731Z,102068.97
2023-02-26T02:52:38.808Z,102065.44
2023-02-26T02:54:54.219Z,102068.03
2023-02-26T02:57:07.459Z,102070.63
2023-02-26T02:59:18.045Z,102082.69
2023-02-26T03:01:23.450Z,102076.53
2023-02-26T03:03:55.435Z,102076.59
2023-02-26T03:05:56.908Z,102082.69
2023-02-26T03:08:06.527Z,102076.59
2023-02-26T03:10:08.881Z,102085.28
2023-02-26T03:12:10.662Z,102094.81
2023-02-26T03:14:14.616Z,102093.03
2023-02-26T03:16:31.261Z,102092.94
2023-02-26T03:18:44.955Z,102092.91
2023-02-26T03:21:11.926Z,102097.13
2023-02-26T03:23:24.729Z,102098.84
2023-02-26T03:25:37.732Z,102105.78
2023-02-26T03:27:47.633Z,102109.25
2023-02-26T03:29:59.034Z,102109.25
2023-02-26T03:32:07.583Z,102119.56
2023-02-26T03:34:24.448Z,102112.66
2023-02-26T03:36:43.069Z,102114.44
2023-02-26T03:38:53.570Z,102117.84
2023-02-26T03:41:04.222Z,102123.84
2023-02-26T03:43:15.563Z,102127.28
2023-02-26T03:45:23.512Z,102133.28
2023-02-26T03:47:26.122Z,102129.84
2023-02-26T03:49:35.797Z,102139.34
2023-02-26T03:51:40.662Z,102145.41
2023-02-26T03:53:54.145Z,102143.69
2023-02-26T03:56:12.421Z,102147.94
2023-02-26T03:58:14.285Z,102159.13
2023-02-26T04:00:17.782Z,102165.13
2023-02-26T04:02:27.123Z,102159.13
2023-02-26T04:04:42.447Z,102163.47
2023-02-26T04:06:45.292Z,102161.69
2023-02-26T04:08:47.869Z,102170.22
2023-02-26T04:10:54.225Z,102167.63
2023-02-26T04:12:59.916Z,102170.22
2023-02-26T04:15:01.965Z,102178.94
2023-02-26T04:17:04.440Z,102181.47
2023-02-26T04:19:05.886Z,102178.06
2023-02-26T04:21:07.352Z,102187.47
2023-02-26T04:23:08.815Z,102183.06
2023-02-26T04:25:10.345Z,102190.81
2023-02-26T04:27:11.842Z,102195.06
2023-02-26T04:29:14.625Z,102192.53
2023-02-26T04:31:16.279Z,102196.81
2023-02-26T04:33:17.772Z,102192.53
2023-02-26T04:35:19.267Z,102201.13
2023-02-26T04:37:20.735Z,102207.13
2023-02-26T04:39:22.237Z,102201.94
2023-02-26T04:41:23.760Z,102210.53
2023-02-26T04:43:25.232Z,102206.22
2023-02-26T04:45:26.770Z,102223.47
2023-02-26T04:47:28.230Z,102217.41
2023-02-26T04:49:29.713Z,102217.41
2023-02-26T04:51:31.420Z,102227.78
2023-02-26T04:53:33.350Z,102228.72
2023-02-26T04:55:36.709Z,102216.59
2023-02-26T04:57:38.163Z,102233.03
2023-02-26T04:59:39.684Z,102231.25
2023-02-26T05:01:41.273Z,102234.72
2023-02-26T05:03:42.751Z,102233.78
2023-02-26T05:05:45.061Z,102236.31
2023-02-26T05:07:46.566Z,102238.88
2023-02-26T05:09:48.017Z,102246.72
2023-02-26T05:11:49.889Z,102242.31
2023-02-26T05:13:51.472Z,102253.53
2023-02-26T05:15:56.093Z,102251.84
2023-02-26T05:17:57.734Z,102262.19
2023-02-26T05:19:59.206Z,102258.72
2023-02-26T05:22:00.736Z,102266.56
2023-02-26T05:24:02.232Z,102265.66
2023-02-26T05:26:03.818Z,102268.25
2023-02-26T05:28:05.338Z,102273.44
2023-02-26T05:30:07.670Z,102265.53
2023-02-26T05:32:09.216Z,102274.19
2023-02-26T05:34:10.979Z,102279.38
2023-02-26T05:36:13.131Z,102279.38
2023-02-26T05:38:14.742Z,102280.25
2023-02-26T05:40:16.258Z,102285.31
2023-02-26T05:42:17.796Z,102283.59
2023-02-26T05:44:19.280Z,102280.94
2023-02-26T05:46:20.884Z,102287.91
2023-02-26T05:48:23.545Z,102292.25
2023-02-26T05:50:25.071Z,102290.47
2023-02-26T05:52:26.624Z,102291.38
2023-02-26T05:54:28.077Z,102291.31
2023-02-26T05:56:29.628Z,102294.72
2023-02-26T05:58:33.878Z,102299.00
2023-02-26T06:00:35.568Z,102295.47
2023-02-26T06:02:37.057Z,102307.53
2023-02-26T06:04:38.593Z,102311.88
2023-02-26T06:06:40.157Z,102317.00
2023-02-26T06:08:41.911Z,102312.63
2023-02-26T06:10:43.976Z,102333.28
2023-02-26T06:12:45.454Z,102332.41
2023-02-26T06:14:46.924Z,102335.81
2023-02-26T06:16:48.478Z,102335.81
2023-02-26T06:18:50.066Z,102346.16
2023-02-26T06:20:51.528Z,102346.91
2023-02-26T06:22:52.992Z,102351.28
2023-02-26T06:24:55.660Z,102350.38
2023-02-26T06:26:57.112Z,102356.38
2023-02-26T06:28:59.154Z,102347.72
2023-02-26T06:31:00.799Z,102345.88
2023-02-26T06:33:02.408Z,102351.94
2023-02-26T06:35:04.926Z,102348.47
2023-02-26T06:37:06.517Z,102358.72
2023-02-26T06:39:08.102Z,102352.66
2023-02-26T06:41:09.573Z,102358.00
2023-02-26T06:43:11.396Z,102365.84
2023-02-26T06:45:12.870Z,102368.50
2023-02-26T06:47:14.537Z,102367.63
2023-02-26T06:49:16.212Z,102366.00
2023-02-26T06:51:17.737Z,102363.47
2023-02-26T06:53:19.257Z,102374.84
2023-02-26T06:55:21.959Z,102380.97
2023-02-26T06:57:23.611Z,102376.75
2023-02-26T06:59:25.145Z,102386.38
2023-02-26T07:01:27.229Z,102391.69
2023-02-26T07:03:28.729Z,102396.13
2023-02-26T07:05:30.249Z,102389.31
2023-02-26T07:07:31.848Z,102398.03
2023-02-26T07:09:33.345Z,102401.56
2023-02-26T07:11:34.873Z,102397.34
2023-02-26T07:13:39.680Z,102406.16
2023-02-26T07:15:41.221Z,102406.22
2023-02-26T07:17:43.218Z,102420.13
2023-02-26T07:19:44.672Z,102415.00
2023-02-26T07:21:46.636Z,102422.06
2023-02-26T07:23:48.107Z,102429.16
2023-02-26T07:25:50.125Z,102431.88
2023-02-26T07:27:52.302Z,102431.13
2023-02-26T07:29:53.817Z,102435.50
2023-02-26T07:31:55.453Z,102440.88
2023-02-26T07:33:57.306Z,102441.84
2023-02-26T07:35:58.786Z,102447.22
2023-02-26T07:38:00.535Z,102445.66
2023-02-26T07:40:02.068Z,102449.34
2023-02-26T07:42:03.651Z,102454.66
2023-02-26T07:44:05.110Z,102459.16
2023-02-26T07:46:06.705Z,102461.06
2023-02-26T07:48:08.263Z,102468.19
2023-02-26T07:50:10.831Z,102468.34
2023-02-26T07:52:12.343Z,102468.47
2023-02-26T07:54:14.538Z,102472.16
2023-02-26T07:56:16.017Z,102474.06
2023-02-26T07:58:18.445Z,102465.53
2023-02-26T08:00:20.190Z,102469.13
2023-02-26T08:02:23.418Z,102472.34
2023-02-26T08:04:25.023Z,102469.06
2023-02-26T08:06:27.135Z,102476.09
2023-02-26T08:08:29.189Z,102470.97
2023-02-26T08:10:31.365Z,102467.13
2023-02-26T08:12:33.110Z,102480.28
2023-02-26T08:14:34.654Z,102479.47
2023-02-26T08:16:36.166Z,102487.19
2023-02-26T08:18:37.621Z,102485.84
2023-02-26T08:20:39.124Z,102481.91
2023-02-26T08:22:41.177Z,102490.84
2023-02-26T08:24:42.638Z,102488.44
2023-02-26T08:26:46.191Z,102499.06
2023-02-26T08:28:48.551Z,102499.25
2023-02-26T08:30:53.152Z,102504.41
2023-02-26T08:32:54.723Z,102509.34
2023-02-26T08:34:56.246Z,102508.44
2023-02-26T08:36:57.733Z,102512.06
2023-02-26T08:38:59.232Z,102521.75
2023-02-26T08:41:00.920Z,102525.28
2023-02-26T08:43:04.011Z,102524.63
2023-02-26T08:45:06.016Z,102529.94
2023-02-26T08:47:07.595Z,102522.91
2023-02-26T08:49:09.138Z,102526.53
2023-02-26T08:51:10.843Z,102532.72
2023-02-26T08:53:12.521Z,102538.31
2023-02-26T08:55:13.982Z,102543.38
2023-02-26T08:57:15.475Z,102551.09
2023-02-26T08:59:16.968Z,102552.81
2023-02-26T09:01:18.484Z,102549.38
2023-02-26T09:03:19.948Z,102555.72
2023-02-26T09:05:22.070Z,102555.97
2023-02-26T09:07:23.519Z,102557.69
2023-02-26T09:09:24.977Z,102555.97
2023-02-26T09:11:26.682Z,102555.41
2023-02-26T09:13:28.997Z,102557.53
2023-02-26T09:15:30.468Z,102571.56
2023-02-26T09:17:32.254Z,102573.53
2023-02-26T09:19:33.755Z,102573.78
2023-02-26T09:21:35.830Z,102574.72
2023-02-26T09:23:37.319Z,102581.75
2023-02-26T09:25:39.147Z,102583.47
2023-02-26T09:27:40.708Z,102588.03
2023-02-26T09:29:42.241Z,102580.53
2023-02-26T09:31:43.991Z,102585.09
2023-02-26T09:33:45.647Z,102592.22
2023-02-26T09:35:51.062Z,102597.38
2023-02-26T09:37:52.533Z,102592.31
2023-02-26T09:39:55.023Z,102593.16
2023-02-26T09:42:01.973Z,102596.81
2023-02-26T09:44:17.513Z,102601.38
2023-02-26T09:46:33.776Z,102595.09
2023-02-26T09:48:38.692Z,102604.09
2023-02-26T09:50:48.662Z,102613.00
2023-02-26T09:53:16.927Z,102602.25
2023-02-26T09:55:34.479Z,102607.41
2023-02-26T09:57:42.115Z,102615.19
2023-02-26T09:59:43.685Z,102612.78
2023-02-26T10:02:04.089Z,102620.47
2023-02-26T10:04:08.374Z,102621.28
2023-02-26T10:06:15.677Z,102631.75
2023-02-26T10:08:18.913Z,102632.63
2023-02-26T10:10:49.764Z,102635.34
2023-02-26T10:12:52.979Z,102632.00
2023-02-26T10:15:03.429Z,102632.53
2023-02-26T10:17:23.466Z,102636.19
2023-02-26T10:19:37.272Z,102637.97
2023-02-26T10:21:50.754Z,102637.38
2023-02-26T10:24:04.140Z,102636.66
2023-02-26T10:26:19.694Z,102651.88
2023-02-26T10:28:52.139Z,102653.25
2023-02-26T10:31:06.207Z,102649.88
2023-02-26T10:33:22.170Z,102649.88
2023-02-26T10:35:27.183Z,102661.97
2023-02-26T10:37:54.807Z,102660.84
2023-02-26T10:40:09.242Z,102667.47
2023-02-26T10:42:17.340Z,102673.38
2023-02-26T10:44:40.530Z,102663.75
2023-02-26T10:46:52.045Z,102667.47
2023-02-26T10:49:29.715Z,102677.53
2023-02-26T10:51:38.644Z,102672.03
2023-02-26T10:53:43.836Z,102682.91
2023-02-26T10:55:48.497Z,102677.22
2023-02-26T10:58:14.959Z,102673.97
2023-02-26T11:00:21.195Z,102675.13
2023-02-26T11:02:33.620Z,102673.78
2023-02-26T11:04:35.161Z,102670.34
2023-02-26T11:06:42.624Z,102679.19
2023-02-26T11:08:47.885Z,102678.78
2023-02-26T11:10:58.130Z,102667.56
2023-02-26T11:12:59.635Z,102673.75
2023-02-26T11:15:02.186Z,102681.06
2023-02-26T11:17:20.790Z,102677.50
2023-02-26T11:19:49.763Z,102685.56
2023-02-26T11:21:51.751Z,102683.47
2023-02-26T11:24:02.930Z,102680.00
2023-02-26T11:26:07.866Z,102677.94
2023-02-26T11:28:29.778Z,102680.81
2023-02-26T11:30:37.174Z,102677.56
2023-02-26T11:32:39.577Z,102682.41
2023-02-26T11:34:47.131Z,102679.09
2023-02-26T11:36:48.948Z,102673.75
2023-02-26T11:39:18.148Z,102681.56
2023-02-26T11:41:19.672Z,102674.53
2023-02-26T11:43:23.680Z,102667.84
2023-02-26T11:45:25.663Z,102676.34
2023-02-26T11:47:31.009Z,102674.22
2023-02-26T11:49:32.605Z,102664.84
2023-02-26T11:51:34.140Z,102676.84
2023-02-26T11:53:37.476Z,102673.56
2023-02-26T11:55:50.327Z,102675.34
2023-02-26T11:57:54.851Z,102678.31
2023-02-26T11:59:59.632Z,102681.28
2023-02-26T12:02:12.787Z,102673.28
2023-02-26T12:04:18.876Z,102668.31
2023-02-26T12:06:24.733Z,102668.63
2023-02-26T12:08:38.254Z,102662.28
2023-02-26T12:11:08.958Z,102664.13
2023-02-26T12:13:22.382Z,102667.56
2023-02-26T12:15:33.901Z,102666.34
2023-02-26T12:18:05.495Z,102662.88
2023-02-26T12:20:15.339Z,102665.72
2023-02-26T12:22:35.125Z,102658.16
2023-02-26T12:24:57.974Z,102667.06
2023-02-26T12:27:40.879Z,102670.84
2023-02-26T12:30:04.323Z,102675.25
2023-02-26T12:32:32.658Z,102670.84
2023-02-26T12:34:52.294Z,102679.72
2023-02-26T12:37:40.737Z,102667.44
2023-02-26T12:39:57.175Z,102668.47
2023-02-26T12:42:03.141Z,102669.25
2023-02-26T12:44:18.551Z,102676.09
2023-02-26T12:46:35.660Z,102673.19
2023-02-26T12:48:58.421Z,102678.97
2023-02-26T12:51:11.945Z,102679.41
2023-02-26T12:53:50.769Z,102681.22
2023-02-26T12:56:28.170Z,102674.28
2023-02-26T12:59:26.313Z,102674.22
2023-02-26T13:02:34.691Z,102670.88
2023-02-26T13:04:56.358Z,102668.59
2023-02-26T13:07:20.357Z,102676.50
2023-02-26T13:09:58.163Z,102673.97
2023-02-26T13:12:39.593Z,102667.88
2023-02-26T13:15:03.489Z,102666.06
2023-02-26T13:17:31.026Z,102669.59
2023-02-26T13:19:43.192Z,102670.50
2023-02-26T13:21:53.318Z,102671.00
2023-02-26T13:24:01.239Z,102667.78
2023-02-26T13:26:09.050Z,102674.31
2023-02-26T13:28:30.902Z,102673.84
2023-02-26T13:30:43.158Z,102685.81
2023-02-26T13:32:48.125Z,102670.28
2023-02-26T13:35:04.892Z,102681.34
2023-02-26T13:37:10.672Z,102673.88
2023-02-26T13:39:42.824Z,102676.16
2023-02-26T13:41:54.790Z,102673.56
2023-02-26T13:44:13.012Z,102678.00
2023-02-26T13:46:36.402Z,102671.66
2023-02-26T13:49:09.026Z,102676.41
2023-02-26T13:51:36.782Z,102667.81
2023-02-26T13:53:41.214Z,102665.59
2023-02-26T13:55:46.717Z,102672.31
2023-02-26T13:57:52.215Z,102665.81
2023-02-26T14:00:12.530Z,102676.09
2023-02-26T14:02:19.775Z,102671.59
2023-02-26T14:04:22.351Z,102661.28
2023-02-26T14:06:44.450Z,102667.16
2023-02-26T14:08:49.169Z,102664.00
2023-02-26T14:10:58.576Z,102666.00
2023-02-26T14:13:20.975Z,102667.88
2023-02-26T14:15:39.518Z,102661.81
2023-02-26T14:17:49.000Z,102664.34
2023-02-26T14:19:53.526Z,102665.13
2023-02-26T14:22:19.989Z,102662.34
2023-02-26T14:24:50.461Z,102671.03
2023-02-26T14:27:08.617Z,102663.81
2023-02-26T14:29:19.964Z,102667.88
2023-02-26T14:31:26.497Z,102669.50
2023-02-26T14:33:30.838Z,102671.41
2023-02-26T14:35:36.262Z,102664.63
2023-02-26T14:37:40.091Z,102660.41
2023-02-26T14:40:21.536Z,102661.28
2023-02-26T14:42:25.680Z,102666.47
2023-02-26T14:44:36.766Z,102668.34
2023-02-26T14:46:39.495Z,102667.38
2023-02-26T14:48:41.193Z,102667.00
2023-02-26T14:51:05.655Z,102671.84
2023-02-26T14:53:43.876Z,102670.59
2023-02-26T14:55:48.362Z,102669.56
2023-02-26T14:57:49.771Z,102666.84
2023-02-26T15:00:13.882Z,102669.41
2023-02-26T15:02:24.788Z,102666.84
2023-02-26T15:04:38.256Z,102665.22
2023-02-26T15:06:46.956Z,102667.94
2023-02-26T15:09:09.918Z,102668.03
2023-02-26T15:11:44.514Z,102672.63
2023-02-26T15:13:55.766Z,102670.16
2023-02-26T15:16:12.939Z,102664.19
2023-02-26T15:18:34.651Z,102666.06
2023-02-26T15:20:52.233Z,102671.31
2023-02-26T15:23:08.903Z,102669.47
2023-02-26T15:25:26.229Z,102671.91
2023-02-26T15:27:30.700Z,102682.22
2023-02-26T15:29:37.737Z,102674.19
2023-02-26T15:31:45.349Z,102681.09
2023-02-26T15:33:50.739Z,102677.47
2023-02-26T15:35:54.638Z,102680.84
2023-02-26T15:37:59.331Z,102688.53
2023-02-26T15:40:05.113Z,102692.66
2023-02-26T15:42:06.869Z,102693.19
2023-02-26T15:44:13.948Z,102695.38
2023-02-26T15:46:16.026Z,102689.78
2023-02-26T15:48:21.941Z,102695.56
2023-02-26T15:50:30.630Z,102703.16
2023-02-26T15:52:33.253Z,102696.03
2023-02-26T15:54:41.542Z,102694.19
2023-02-26T15:56:43.422Z,102699.50
2023-02-26T15:58:50.202Z,102696.09
2023-02-26T16:00:54.220Z,102699.63
2023-02-26T16:02:59.435Z,102703.16
2023-02-26T16:05:02.885Z,102696.19
2023-02-26T16:07:04.540Z,102697.94
2023-02-26T16:09:09.070Z,102700.44
2023-02-26T16:11:12.258Z,102707.31
2023-02-26T16:13:40.781Z,102709.88
2023-02-26T16:15:44.784Z,102710.50
2023-02-26T16:17:49.411Z,102711.25
2023-02-26T16:19:52.001Z,102713.81
2023-02-26T16:21:56.044Z,102718.16
2023-02-26T16:23:59.913Z,102711.91
2023-02-26T16:26:04.855Z,102719.69
2023-02-26T16:28:16.489Z,102713.38
2023-02-26T16:30:23.450Z,102722.03
2023-02-26T16:32:28.009Z,102724.50
2023-02-26T16:34:37.351Z,102721.63
2023-02-26T16:36:41.785Z,102725.06
2023-02-26T16:39:04.899Z,102730.13
2023-02-26T16:41:11.269Z,102732.59
2023-02-26T16:43:53.186Z,102729.72
2023-02-26T16:45:56.819Z,102728.63
2023-02-26T16:47:59.544Z,102731.06
2023-02-26T16:50:02.740Z,102738.66
2023-02-26T16:52:05.331Z,102743.75
2023-02-26T16:54:19.570Z,102740.09
2023-02-26T16:56:26.469Z,102745.97
2023-02-26T16:58:30.587Z,102742.31
2023-02-26T17:00:33.220Z,102748.25
2023-02-26T17:02:36.899Z,102742.84
2023-02-26T17:04:39.224Z,102752.25
2023-02-26T17:06:42.068Z,102755.56
2023-02-26T17:08:52.496Z,102751.09
2023-02-26T17:11:01.069Z,102752.75
2023-02-26T17:13:12.750Z,102760.47
2023-02-26T17:15:28.376Z,102762.94
2023-02-26T17:17:29.907Z,102762.78
2023-02-26T17:19:31.354Z,102769.59
2023-02-26T17:21:33.032Z,102771.22
2023-02-26T17:23:37.634Z,102777.19
2023-02-26T17:25:43.213Z,102779.63
2023-02-26T17:27:45.886Z,102776.09
2023-02-26T17:29:51.013Z,102781.22
2023-02-26T17:31:53.036Z,102780.28
2023-02-26T17:33:54.634Z,102782.84
2023-02-26T17:35:59.525Z,102789.72
2023-02-26T17:38:01.217Z,102788.84
2023-02-26T17:40:04.926Z,102789.63
2023-02-26T17:42:15.586Z,102786.97
2023-02-26T17:44:17.180Z,102789.47
2023-02-26T17:46:18.662Z,102789.47
2023-02-26T17:48:20.470Z,102785.88
2023-02-26T17:50:40.731Z,102798.00
2023-02-26T17:52:42.206Z,102803.16
2023-02-26T17:54:44.225Z,102800.50
2023-02-26T17:56:45.845Z,102796.03
2023-02-26T17:58:49.312Z,102809.03
2023-02-26T18:00:53.147Z,102809.81
2023-02-26T18:02:54.786Z,102816.75
2023-02-26T18:04:56.428Z,102816.81
2023-02-26T18:06:58.010Z,102826.34
2023-02-26T18:08:59.482Z,102827.19
2023-02-26T18:11:02.476Z,102830.59
2023-02-26T18:13:04.194Z,102824.47
2023-02-26T18:15:06.298Z,102826.19
2023-02-26T18:17:12.490Z,102833.06
2023-02-26T18:19:15.350Z,102825.16
2023-02-26T18:21:16.814Z,102832.94
2023-02-26T18:23:19.071Z,102831.13
2023-02-26T18:25:21.983Z,102836.19
2023-02-26T18:27:26.003Z,102829.91
2023-02-26T18:29:27.753Z,102830.53
2023-02-26T18:31:34.760Z,102833.88
2023-02-26T18:33:38.716Z,102834.75
2023-02-26T18:35:45.847Z,102834.53
2023-02-26T18:37:52.880Z,102833.66
2023-02-26T18:39:55.811Z,102833.53
2023-02-26T18:41:57.269Z,102841.31
2023-02-26T18:44:00.110Z,102837.66
2023-02-26T18:46:02.288Z,102841.91
2023-02-26T18:48:04.039Z,102842.72
2023-02-26T18:50:07.258Z,102842.63
2023-02-26T18:52:09.246Z,102846.78
2023-02-26T18:54:10.714Z,102844.00
2023-02-26T18:56:12.312Z,102849.16
2023-02-26T18:58:13.787Z,102849.03
2023-02-26T19:00:15.744Z,102851.47
2023-02-26T19:02:17.423Z,102854.81
2023-02-26T19:04:18.929Z,102850.38
2023-02-26T19:06:20.415Z,102848.41
2023-02-26T19:08:21.903Z,102847.41
2023-02-26T19:10:23.440Z,102855.84
2023-02-26T19:12:26.421Z,102853.19
2023-02-26T19:14:28.221Z,102851.31
2023-02-26T19:16:34.931Z,102857.28
2023-02-26T19:18:36.407Z,102858.81
2023-02-26T19:20:37.915Z,102850.75
2023-02-26T19:22:40.079Z,102854.84
2023-02-26T19:24:43.074Z,102856.44
2023-02-26T19:26:44.611Z,102861.47
2023-02-26T19:28:46.159Z,102856.09
2023-02-26T19:30:47.684Z,102870.66
2023-02-26T19:32:50.281Z,102858.34
2023-02-26T19:34:52.531Z,102860.00
2023-02-26T19:36:54.102Z,102862.44
2023-02-26T19:38:55.574Z,102864.91
2023-02-26T19:40:57.847Z,102862.06
2023-02-26T19:42:59.315Z,102867.84
2023-02-26T19:45:01.209Z,102862.44
2023-02-26T19:47:02.803Z,102860.53
2023-02-26T19:49:04.419Z,102865.56
2023-02-26T19:51:06.807Z,102867.94
2023-02-26T19:53:08.368Z,102862.47
2023-02-26T19:55:10.349Z,102866.59
2023-02-26T19:57:11.831Z,102872.50
2023-02-26T19:59:13.360Z,102870.59
2023-02-26T20:01:14.943Z,102874.69
2023-02-26T20:03:16.449Z,102876.22
2023-02-26T20:05:18.269Z,102880.25
2023-02-26T20:07:19.798Z,102894.84
2023-02-26T20:09:22.880Z,102885.91
2023-02-26T20:11:24.707Z,102891.72
2023-02-26T20:13:29.793Z,102895.91
2023-02-26T20:15:31.385Z,102900.16
2023-02-26T20:17:33.958Z,102899.06
2023-02-26T20:19:35.414Z,102901.53
2023-02-26T20:21:36.878Z,102903.97
2023-02-26T20:23:39.702Z,102915.06
2023-02-26T20:25:43.154Z,102913.06
2023-02-26T20:27:45.117Z,102916.28
2023-02-26T20:29:47.142Z,102925.53
2023-02-26T20:31:49.990Z,102924.50
2023-02-26T20:33:52.754Z,102933.06
2023-02-26T20:35:54.629Z,102925.84
2023-02-26T20:37:56.102Z,102931.81
2023-02-26T20:39:57.581Z,102929.88
2023-02-26T20:41:59.513Z,102928.03
2023-02-26T20:44:01.083Z,102936.50
2023-02-26T20:46:02.776Z,102940.66
2023-02-26T20:48:05.921Z,102935.31
2023-02-26T20:50:09.648Z,102944.53
2023-02-26T20:52:11.146Z,102940.97
2023-02-26T20:54:14.695Z,102945.06
2023-02-26T20:56:17.721Z,102944.03
2023-02-26T20:58:19.206Z,102938.63
2023-02-26T21:00:21.637Z,102946.34
2023-02-26T21:02:23.153Z,102946.94
2023-02-26T21:04:24.700Z,102939.66
2023-02-26T21:06:26.183Z,102948.25
2023-02-26T21:08:27.660Z,102948.19
2023-02-26T21:10:29.216Z,102951.53
2023-02-26T21:12:31.180Z,102951.38
2023-02-26T21:14:33.082Z,102947.81
2023-02-26T21:16:36.214Z,102950.25
2023-02-26T21:18:37.713Z,102946.50
2023-02-26T21:20:39.227Z,102945.38
2023-02-26T21:22:40.715Z,102944.41
2023-02-26T21:24:42.430Z,102939.97
2023-02-26T21:26:43.876Z,102951.06
2023-02-26T21:28:48.334Z,102943.13
2023-02-26T21:30:53.537Z,102942.09
2023-02-26T21:32:55.129Z,102950.53
2023-02-26T21:34:58.781Z,102952.09
2023-02-26T21:37:05.584Z,102964.00
2023-02-26T21:39:07.054Z,102962.06
2023-02-26T21:41:08.513Z,102963.59
2023-02-26T21:43:10.652Z,102962.47
2023-02-26T21:45:12.444Z,102957.09
2023-02-26T21:47:13.928Z,102963.91
2023-02-26T21:49:15.421Z,102963.81
2023-02-26T21:51:17.045Z,102962.03
2023-02-26T21:53:18.539Z,102962.84
2023-02-26T21:55:20.045Z,102966.09
2023-02-26T21:57:21.496Z,102963.44
2023-02-26T21:59:23.522Z,102975.41
2023-02-26T22:01:25.456Z,102973.56
2023-02-26T22:03:27.056Z,102974.28
2023-02-26T22:05:28.536Z,102978.59
2023-02-26T22:07:29.997Z,102971.53
2023-02-26T22:09:31.465Z,102974.94
2023-02-26T22:11:32.948Z,102968.78
2023-02-26T22:13:34.509Z,102965.13
2023-02-26T22:15:35.969Z,102972.81
2023-02-26T22:17:37.596Z,102972.75
2023-02-26T22:19:39.083Z,102975.34
2023-02-26T22:21:40.588Z,102971.69
2023-02-26T22:23:42.099Z,102972.59
2023-02-26T22:25:43.582Z,102979.28
2023-02-26T22:27:45.080Z,102986.09
2023-02-26T22:29:46.557Z,102973.94
2023-02-26T22:31:48.217Z,102983.38
2023-02-26T22:33:49.801Z,102975.44
2023-02-26T22:35:51.509Z,102984.03
2023-02-26T22:37:53.010Z,102982.16
2023-02-26T22:39:54.546Z,102991.56
2023-02-26T22:41:56.545Z,102988.81
2023-02-26T22:43:58.210Z,102984.34
2023-02-26T22:45:59.691Z,102990.25
2023-02-26T22:48:01.161Z,102990.09
2023-02-26T22:50:02.680Z,102995.25
2023-02-26T22:52:05.887Z,102995.97
2023-02-26T22:54:07.395Z,102995.00
2023-02-26T22:56:08.875Z,102997.59
2023-02-26T22:58:10.452Z,102998.41
2023-02-26T23:00:15.687Z,102992.34
2023-02-26T23:02:17.132Z,103004.31
2023-02-26T23:04:18.624Z,103001.72
2023-02-26T23:06:20.198Z,103000.75
2023-02-26T23:08:21.740Z,102996.38
2023-02-26T23:10:23.349Z,102994.41
2023-02-26T23:12:24.830Z,102991.75
2023-02-26T23:14:26.975Z,103002.00
2023-02-26T23:16:28.465Z,102999.34
2023-02-26T23:18:30.031Z,103006.22
2023-02-26T23:20:31.550Z,103003.41
2023-02-26T23:22:33.018Z,102999.03
2023-02-26T23:24:34.526Z,102995.47
2023-02-26T23:26:35.997Z,102997.09
2023-02-26T23:28:37.732Z,102996.91
2023-02-26T23:30:39.855Z,103004.59
2023-02-26T23:32:41.487Z,102995.84
2023-02-26T23:34:43.115Z,102998.34
2023-02-26T23:36:44.589Z,102999.16
2023-02-26T23:38:46.097Z,102999.16
2023-02-26T23:40:48.329Z,102998.28
2023-02-26T23:42:49.807Z,103005.16
2023-02-26T23:44:51.318Z,103001.50
2023-02-26T23:46:52.775Z,103001.41
2023-02-26T23:48:55.628Z,103009.97
2023-02-26T23:50:57.085Z,103009.81
2023-02-26T23:52:58.567Z,103005.44
2023-02-26T23:55:01.021Z,103006.94
2023-02-26T23:57:02.501Z,103010.16
2023-02-26T23:59:04.650Z,103011.06
